Time;durP1;ratioP1;P1;durP2;ratioP2;P2;SDS_P1;SDS_P2;PMS_P1;PMS_P2;Temp;Humidity;BMP_temperature;BMP_pressure;BME280_temperature;BME280_humidity;BME280_pressure;Samples;Min_cycle;Max_cycle;Signal;HPM_P1;HPM_P2
2021/09/12 00:01:21;;;;;;;;;;;17.80;99.90;;;;;;5086536;28;19955;-73
2021/09/12 00:03:47;;;;;;;;;;;17.70;99.90;;;;;;5095966;28;19927;-73
2021/09/12 00:06:12;;;;;;;;;;;17.80;99.90;;;;;;5094084;28;19912;-72
2021/09/12 00:08:38;;;;;;;;;;;17.70;99.90;;;;;;5078443;28;20562;-72
2021/09/12 00:11:04;;;;;;;;;;;17.70;99.90;;;;;;5093678;28;19947;-73
2021/09/12 00:13:29;;;;;;;;;;;17.70;99.90;;;;;;5096117;28;19912;-73
2021/09/12 00:15:55;;;;;;;;;;;17.70;99.90;;;;;;5096257;28;19923;-72
2021/09/12 00:18:21;;;;;;;;;;;17.60;99.90;;;;;;5079062;28;20338;-72
2021/09/12 00:20:46;;;;;;;;;;;17.60;99.90;;;;;;5096702;28;19923;-72
2021/09/12 00:23:12;;;;;;;;;;;17.50;99.90;;;;;;5096783;28;19908;-72
2021/09/12 00:25:37;;;;;;;;;;;17.60;99.90;;;;;;5078283;28;19912;-72
2021/09/12 00:28:03;;;;;;;;;;;17.50;99.90;;;;;;5082386;28;19912;-73
2021/09/12 00:30:28;;;;;;;;;;;17.50;99.90;;;;;;5096906;28;20322;-72
2021/09/12 00:32:54;;;;;;;;;;;17.50;99.90;;;;;;5096983;28;19915;-72
2021/09/12 00:35:19;;;;;;;;;;;17.50;99.90;;;;;;5095773;28;19969;-72
2021/09/12 00:37:47;;;;;;;;;;;17.50;99.90;;;;;;5096975;28;19908;-73
2021/09/12 00:40:13;;;;;;;;;;;17.50;99.90;;;;;;5094958;28;19923;-73
2021/09/12 00:42:39;;;;;;;;;;;17.40;99.90;;;;;;5078565;28;20440;-72
2021/09/12 00:45:04;;;;;;;;;;;17.40;99.90;;;;;;5083869;28;19983;-72
2021/09/12 00:47:30;;;;;;;;;;;17.40;99.90;;;;;;5096226;28;19909;-73
2021/09/12 00:49:56;;;;;;;;;;;17.30;99.90;;;;;;5078413;28;20321;-73
2021/09/12 00:52:22;;;;;;;;;;;17.30;99.90;;;;;;5095341;28;20307;-72
2021/09/12 00:54:49;;;;;;;;;;;17.30;99.90;;;;;;5095998;28;19912;-72
2021/09/12 00:57:14;;;;;;;;;;;17.30;99.90;;;;;;5095442;28;19912;-72
2021/09/12 00:59:41;;;;;;;;;;;17.30;99.90;;;;;;5077631;28;19919;-72
2021/09/12 01:02:08;;;;;;;;;;;17.30;99.90;;;;;;5077193;28;20386;-72
2021/09/12 01:04:34;;;;;;;;;;;17.20;99.90;;;;;;5096187;28;19919;-73
2021/09/12 01:07:01;;;;;;;;;;;17.20;99.90;;;;;;5095877;28;20322;-72
2021/09/12 01:09:26;;;;;;;;;;;17.20;99.90;;;;;;5072567;28;19948;-73
2021/09/12 01:11:56;;;;;;;;;;;17.20;99.90;;;;;;5093681;28;19970;-72
2021/09/12 01:14:23;;;;;;;;;;;17.20;99.90;;;;;;5094009;28;19951;-72
2021/09/12 01:16:49;;;;;;;;;;;17.10;99.90;;;;;;5076561;28;19960;-72
2021/09/12 01:19:14;;;;;;;;;;;17.10;99.90;;;;;;5095840;28;19912;-72
2021/09/12 01:21:40;;;;;;;;;;;17.10;99.90;;;;;;5096040;28;19954;-73
2021/09/12 01:24:09;;;;;;;;;;;17.10;99.90;;;;;;5095359;28;19995;-73
2021/09/12 01:26:34;;;;;;;;;;;17.10;99.90;;;;;;5077627;28;19981;-73
2021/09/12 01:29:00;;;;;;;;;;;17.00;99.90;;;;;;5077532;28;19950;-73
2021/09/12 01:31:27;;;;;;;;;;;17.00;99.90;;;;;;5094818;28;19908;-73
2021/09/12 01:33:52;;;;;;;;;;;17.00;99.90;;;;;;5094575;28;19922;-73
2021/09/12 01:36:18;;;;;;;;;;;16.90;99.90;;;;;;5095201;28;19912;-73
2021/09/12 01:38:44;;;;;;;;;;;16.90;99.90;;;;;;5077179;28;19912;-73
2021/09/12 01:41:10;;;;;;;;;;;16.90;99.90;;;;;;5090512;28;19915;-73
2021/09/12 01:43:43;;;;;;;;;;;16.80;99.90;;;;;;5085546;28;20011;-72
2021/09/12 01:46:09;;;;;;;;;;;16.80;99.90;;;;;;5090542;28;19922;-72
2021/09/12 01:48:34;;;;;;;;;;;16.80;99.90;;;;;;5076198;28;19912;-72
2021/09/12 01:51:01;;;;;;;;;;;16.80;99.90;;;;;;5076908;28;19908;-72
2021/09/12 01:53:26;;;;;;;;;;;16.70;99.90;;;;;;5058526;28;19916;-72
2021/09/12 01:55:52;;;;;;;;;;;16.70;99.90;;;;;;5095045;28;19954;-73
2021/09/12 01:58:17;;;;;;;;;;;16.70;99.90;;;;;;5094732;28;19955;-72
2021/09/12 02:00:43;;;;;;;;;;;16.60;99.90;;;;;;5095095;28;20319;-72
2021/09/12 02:03:09;;;;;;;;;;;16.60;99.90;;;;;;5091263;28;19984;-72
2021/09/12 02:05:34;;;;;;;;;;;16.60;99.90;;;;;;5082705;28;19971;-73
2021/09/12 02:08:00;;;;;;;;;;;16.60;99.90;;;;;;5094781;28;19908;-73
2021/09/12 02:10:26;;;;;;;;;;;16.50;99.90;;;;;;5090214;28;20405;-72
2021/09/12 02:12:53;;;;;;;;;;;16.50;99.90;;;;;;5090127;28;19919;-73
2021/09/12 02:15:19;;;;;;;;;;;16.50;99.90;;;;;;5076461;28;19950;-73
2021/09/12 02:17:44;;;;;;;;;;;16.50;99.90;;;;;;5094727;28;20263;-72
2021/09/12 02:20:10;;;;;;;;;;;16.40;99.90;;;;;;5094975;28;20306;-73
2021/09/12 02:22:36;;;;;;;;;;;16.40;99.90;;;;;;5095162;28;19927;-73
2021/09/12 02:25:02;;;;;;;;;;;16.40;99.90;;;;;;5076850;28;19916;-72
2021/09/12 02:27:27;;;;;;;;;;;16.30;99.90;;;;;;5094826;28;19990;-73
2021/09/12 02:29:53;;;;;;;;;;;16.30;99.90;;;;;;5076617;28;19914;-72
2021/09/12 02:32:18;;;;;;;;;;;16.30;99.90;;;;;;5094855;28;19985;-73
2021/09/12 02:34:44;;;;;;;;;;;16.20;99.90;;;;;;5093747;28;19947;-73
2021/09/12 02:37:09;;;;;;;;;;;16.20;99.90;;;;;;5094623;28;19912;-73
2021/09/12 02:39:35;;;;;;;;;;;16.20;99.90;;;;;;5094459;28;19944;-73
2021/09/12 02:42:00;;;;;;;;;;;16.20;99.90;;;;;;5075469;28;19912;-73
2021/09/12 02:44:26;;;;;;;;;;;16.20;99.90;;;;;;5094298;28;20255;-73
2021/09/12 02:46:52;;;;;;;;;;;16.10;99.90;;;;;;5092308;28;19989;-72
2021/09/12 02:49:17;;;;;;;;;;;16.10;99.90;;;;;;5076176;28;19912;-72
2021/09/12 02:51:43;;;;;;;;;;;16.10;99.90;;;;;;5092788;28;19908;-73
2021/09/12 02:54:12;;;;;;;;;;;16.00;99.90;;;;;;5076415;28;19952;-72
2021/09/12 02:56:38;;;;;;;;;;;16.00;99.90;;;;;;5093928;28;19912;-72
2021/09/12 02:59:03;;;;;;;;;;;16.00;99.90;;;;;;5093880;28;19939;-72
2021/09/12 03:01:29;;;;;;;;;;;16.00;99.90;;;;;;5073682;28;19993;-72
2021/09/12 03:03:55;;;;;;;;;;;15.90;99.90;;;;;;5094466;28;19916;-73
2021/09/12 03:06:20;;;;;;;;;;;15.90;99.90;;;;;;5093522;28;20333;-72
2021/09/12 03:08:46;;;;;;;;;;;15.90;99.90;;;;;;5094014;28;19965;-73
2021/09/12 03:11:11;;;;;;;;;;;15.80;99.90;;;;;;5075725;28;19915;-73
2021/09/12 03:13:37;;;;;;;;;;;15.80;99.90;;;;;;5094264;28;20016;-72
2021/09/12 03:16:03;;;;;;;;;;;15.80;99.90;;;;;;5090766;28;19908;-72
2021/09/12 03:18:28;;;;;;;;;;;15.80;99.90;;;;;;5079671;28;19920;-72
2021/09/12 03:20:54;;;;;;;;;;;15.70;99.90;;;;;;5097663;28;19915;-72
2021/09/12 03:23:20;;;;;;;;;;;15.70;99.90;;;;;;5079984;28;19919;-73
2021/09/12 03:25:45;;;;;;;;;;;15.70;99.90;;;;;;5078666;28;19916;-72
2021/09/12 03:28:11;;;;;;;;;;;15.70;99.90;;;;;;5097763;28;19962;-73
2021/09/12 03:30:37;;;;;;;;;;;15.60;99.90;;;;;;5097897;28;19978;-72
2021/09/12 03:33:02;;;;;;;;;;;15.50;99.90;;;;;;5096898;28;20249;-73
2021/09/12 03:35:28;;;;;;;;;;;15.50;99.90;;;;;;5079743;28;19958;-72
2021/09/12 03:37:53;;;;;;;;;;;15.50;99.90;;;;;;5078920;28;20303;-72
2021/09/12 03:40:19;;;;;;;;;;;15.50;99.90;;;;;;5079873;28;19923;-72
2021/09/12 03:42:45;;;;;;;;;;;15.40;99.90;;;;;;5097441;28;20267;-72
2021/09/12 03:45:10;;;;;;;;;;;15.40;99.90;;;;;;5096476;28;19927;-73
2021/09/12 03:47:36;;;;;;;;;;;15.40;99.90;;;;;;5097618;28;19926;-73
2021/09/12 03:50:03;;;;;;;;;;;15.40;99.90;;;;;;5094075;28;19908;-73
2021/09/12 03:52:28;;;;;;;;;;;15.40;99.90;;;;;;5097177;28;19943;-72
2021/09/12 03:54:54;;;;;;;;;;;15.30;99.90;;;;;;5097200;28;20317;-73
2021/09/12 03:57:20;;;;;;;;;;;15.30;99.90;;;;;;5078340;28;19912;-73
2021/09/12 03:59:46;;;;;;;;;;;15.30;99.90;;;;;;5091500;28;19974;-72
2021/09/12 04:02:11;;;;;;;;;;;15.40;99.90;;;;;;5093180;28;19951;-73
2021/09/12 04:04:37;;;;;;;;;;;15.40;99.90;;;;;;5094647;28;19936;-72
2021/09/12 04:07:02;;;;;;;;;;;15.40;99.90;;;;;;5091296;28;19916;-74
2021/09/12 04:09:28;;;;;;;;;;;15.40;99.90;;;;;;5093564;28;20385;-72
2021/09/12 04:11:54;;;;;;;;;;;15.40;99.90;;;;;;5096885;28;19912;-73
2021/09/12 04:14:19;;;;;;;;;;;15.40;99.90;;;;;;5093265;28;19919;-72
2021/09/12 04:16:45;;;;;;;;;;;15.40;99.90;;;;;;5094585;28;20295;-72
2021/09/12 04:19:11;;;;;;;;;;;15.40;99.90;;;;;;5095840;28;19990;-72
2021/09/12 04:21:36;;;;;;;;;;;15.40;99.90;;;;;;5096101;28;19916;-72
2021/09/12 04:24:02;;;;;;;;;;;15.40;99.90;;;;;;5090611;28;19999;-72
2021/09/12 04:26:27;;;;;;;;;;;15.40;99.90;;;;;;5071840;28;20204;-72
2021/09/12 04:28:53;;;;;;;;;;;15.40;99.90;;;;;;5088410;28;19920;-72
2021/09/12 04:31:19;;;;;;;;;;;15.40;99.90;;;;;;5087325;28;19920;-72
2021/09/12 04:33:44;;;;;;;;;;;15.40;99.90;;;;;;5088380;28;20270;-72
2021/09/12 04:36:10;;;;;;;;;;;15.40;99.90;;;;;;5089151;28;19999;-72
2021/09/12 04:38:35;;;;;;;;;;;15.40;99.90;;;;;;5089732;28;19955;-72
2021/09/12 04:41:01;;;;;;;;;;;15.40;99.90;;;;;;5072780;28;19969;-72
2021/09/12 04:43:27;;;;;;;;;;;15.50;99.90;;;;;;5072048;28;19916;-73
2021/09/12 04:45:52;;;;;;;;;;;15.50;99.90;;;;;;5073040;28;19935;-72
2021/09/12 04:48:18;;;;;;;;;;;15.60;99.90;;;;;;5089769;28;19920;-72
2021/09/12 04:50:43;;;;;;;;;;;15.60;99.90;;;;;;5088603;28;20342;-72
2021/09/12 04:53:09;;;;;;;;;;;15.60;99.90;;;;;;5067741;28;19985;-73
2021/09/12 04:55:35;;;;;;;;;;;15.60;99.90;;;;;;5088140;28;19920;-72
2021/09/12 04:58:00;;;;;;;;;;;15.50;99.90;;;;;;5088789;28;19912;-73
2021/09/12 05:00:26;;;;;;;;;;;15.50;99.90;;;;;;5090209;28;20019;-72
2021/09/12 05:02:52;;;;;;;;;;;15.50;99.90;;;;;;5084884;28;19978;-72
2021/09/12 05:05:17;;;;;;;;;;;15.50;99.90;;;;;;5069716;28;19935;-72
2021/09/12 05:07:43;;;;;;;;;;;15.60;99.90;;;;;;5087907;28;19917;-72
2021/09/12 05:10:08;;;;;;;;;;;15.60;99.90;;;;;;5089010;28;19927;-72
2021/09/12 05:12:34;;;;;;;;;;;15.60;99.90;;;;;;5090031;28;20376;-73
2021/09/12 05:15:00;;;;;;;;;;;15.60;99.90;;;;;;5088958;28;19912;-72
2021/09/12 05:17:25;;;;;;;;;;;15.70;99.90;;;;;;5085977;28;20333;-72
2021/09/12 05:19:51;;;;;;;;;;;15.70;99.90;;;;;;5088245;28;19928;-72
2021/09/12 05:22:16;;;;;;;;;;;15.70;99.90;;;;;;5070355;28;19963;-72
2021/09/12 05:24:42;;;;;;;;;;;15.70;99.90;;;;;;5069171;28;19912;-72
2021/09/12 05:27:07;;;;;;;;;;;15.70;99.90;;;;;;5087994;28;19912;-72
2021/09/12 05:29:33;;;;;;;;;;;15.70;99.90;;;;;;5086060;28;19951;-72
2021/09/12 05:31:58;;;;;;;;;;;15.70;99.90;;;;;;5087011;28;19916;-73
2021/09/12 05:34:24;;;;;;;;;;;15.70;99.90;;;;;;5088213;28;19935;-72
2021/09/12 05:36:50;;;;;;;;;;;15.70;99.90;;;;;;5088332;28;19912;-72
2021/09/12 05:39:15;;;;;;;;;;;15.60;99.90;;;;;;5088406;28;20023;-72
2021/09/12 05:41:41;;;;;;;;;;;15.60;99.90;;;;;;5069732;28;19919;-73
2021/09/12 05:44:07;;;;;;;;;;;15.60;99.90;;;;;;5087732;28;19964;-73
2021/09/12 05:46:35;;;;;;;;;;;15.70;99.90;;;;;;5074400;28;19912;-72
2021/09/12 05:49:01;;;;;;;;;;;15.60;99.90;;;;;;5089277;28;19918;-72
2021/09/12 05:51:26;;;;;;;;;;;15.70;99.90;;;;;;5076860;28;19915;-72
2021/09/12 05:53:52;;;;;;;;;;;15.70;99.90;;;;;;5093668;28;19981;-72
2021/09/12 05:56:17;;;;;;;;;;;15.70;99.90;;;;;;5094361;28;19916;-72
2021/09/12 05:58:43;;;;;;;;;;;15.80;99.90;;;;;;5090295;28;19912;-72
2021/09/12 06:01:09;;;;;;;;;;;15.80;99.90;;;;;;5093456;28;19924;-73
2021/09/12 06:03:34;;;;;;;;;;;15.80;99.90;;;;;;5074977;28;20307;-73
2021/09/12 06:06:00;;;;;;;;;;;15.80;99.90;;;;;;5094499;28;19978;-73
2021/09/12 06:08:25;;;;;;;;;;;15.80;99.90;;;;;;5074804;28;19912;-73
2021/09/12 06:10:51;;;;;;;;;;;15.80;99.90;;;;;;5089262;28;20333;-72
2021/09/12 06:13:17;;;;;;;;;;;15.80;99.90;;;;;;5087847;28;19920;-72
2021/09/12 06:15:43;;;;;;;;;;;15.80;99.90;;;;;;5090054;28;19923;-72
2021/09/12 06:18:08;;;;;;;;;;;15.80;99.90;;;;;;5089462;28;20015;-72
2021/09/12 06:20:34;;;;;;;;;;;15.80;99.90;;;;;;5087029;28;19994;-72
2021/09/12 06:22:59;;;;;;;;;;;15.80;99.90;;;;;;5071035;28;20295;-73
2021/09/12 06:25:25;;;;;;;;;;;15.90;99.90;;;;;;5089021;28;20342;-72
2021/09/12 06:27:51;;;;;;;;;;;15.90;99.90;;;;;;5086291;28;19912;-73
2021/09/12 06:30:18;;;;;;;;;;;15.90;99.90;;;;;;5088629;28;19990;-72
2021/09/12 06:32:44;;;;;;;;;;;16.00;99.90;;;;;;5087098;28;19935;-72
2021/09/12 06:35:10;;;;;;;;;;;16.10;99.90;;;;;;5071519;28;19916;-72
2021/09/12 06:37:36;;;;;;;;;;;16.10;99.90;;;;;;5085746;28;19916;-73
2021/09/12 06:40:03;;;;;;;;;;;16.10;99.90;;;;;;5069210;28;19959;-72
2021/09/12 06:42:29;;;;;;;;;;;16.20;99.90;;;;;;5083925;28;20054;-72
2021/09/12 06:44:54;;;;;;;;;;;16.30;99.90;;;;;;5087382;28;20034;-72
2021/09/12 06:47:20;;;;;;;;;;;16.30;99.90;;;;;;5084195;28;20506;-72
2021/09/12 06:49:45;;;;;;;;;;;16.30;99.90;;;;;;5069633;28;19916;-72
2021/09/12 06:52:11;;;;;;;;;;;16.30;99.90;;;;;;5076232;28;19912;-73
2021/09/12 06:54:37;;;;;;;;;;;16.30;99.90;;;;;;5072096;28;19920;-73
2021/09/12 06:57:02;;;;;;;;;;;16.40;99.90;;;;;;5091800;28;20487;-72
2021/09/12 06:59:28;;;;;;;;;;;16.40;99.90;;;;;;5090630;28;19926;-72
2021/09/12 07:01:53;;;;;;;;;;;16.40;99.90;;;;;;5092141;28;20072;-73
2021/09/12 07:04:19;;;;;;;;;;;16.40;99.90;;;;;;5090764;28;19912;-73
2021/09/12 07:06:45;;;;;;;;;;;16.40;99.90;;;;;;5091054;28;20316;-73
2021/09/12 07:09:11;;;;;;;;;;;16.40;99.90;;;;;;5090021;28;19920;-73
2021/09/12 07:11:38;;;;;;;;;;;16.40;99.90;;;;;;5089234;28;19928;-73
2021/09/12 07:14:03;;;;;;;;;;;16.40;99.90;;;;;;5070642;28;19919;-73
2021/09/12 07:16:29;;;;;;;;;;;16.40;99.90;;;;;;5086055;28;19921;-72
2021/09/12 07:18:55;;;;;;;;;;;16.40;99.90;;;;;;5074715;28;19912;-73
2021/09/12 07:21:20;;;;;;;;;;;16.40;99.90;;;;;;5089967;28;20368;-73
2021/09/12 07:23:46;;;;;;;;;;;16.40;99.90;;;;;;5070568;28;19920;-72
2021/09/12 07:26:11;;;;;;;;;;;16.50;99.90;;;;;;5090651;28;19967;-72
2021/09/12 07:28:38;;;;;;;;;;;16.50;99.90;;;;;;5088614;28;19913;-73
2021/09/12 07:31:04;;;;;;;;;;;16.50;99.90;;;;;;5090871;28;19941;-72
2021/09/12 07:33:29;;;;;;;;;;;16.50;99.90;;;;;;5072892;28;20274;-73
2021/09/12 07:35:55;;;;;;;;;;;16.50;99.90;;;;;;5091140;28;19952;-73
2021/09/12 07:38:21;;;;;;;;;;;16.60;99.90;;;;;;5075586;28;19912;-73
2021/09/12 07:40:46;;;;;;;;;;;16.70;99.90;;;;;;5090680;28;20031;-72
2021/09/12 07:43:12;;;;;;;;;;;16.70;99.90;;;;;;5090361;28;20038;-72
2021/09/12 07:45:37;;;;;;;;;;;16.70;99.90;;;;;;5092207;28;19957;-73
2021/09/12 07:48:03;;;;;;;;;;;16.80;99.90;;;;;;5088968;28;19916;-73
2021/09/12 07:50:29;;;;;;;;;;;16.80;99.90;;;;;;5093472;28;20333;-73
2021/09/12 07:52:54;;;;;;;;;;;16.90;99.90;;;;;;5079784;28;20390;-72
2021/09/12 07:55:20;;;;;;;;;;;17.00;99.90;;;;;;5094452;28;21519;-73
2021/09/12 07:57:46;;;;;;;;;;;17.00;99.90;;;;;;5077543;28;19912;-72
2021/09/12 08:00:12;;;;;;;;;;;17.10;99.90;;;;;;5073996;28;19920;-73
2021/09/12 08:02:38;;;;;;;;;;;17.10;99.90;;;;;;5076824;28;19916;-72
2021/09/12 08:05:03;;;;;;;;;;;17.20;99.90;;;;;;5085958;28;19917;-72
2021/09/12 08:07:29;;;;;;;;;;;17.20;99.90;;;;;;5091776;28;19912;-73
2021/09/12 08:09:54;;;;;;;;;;;17.20;99.90;;;;;;5095501;28;19957;-72
2021/09/12 08:12:20;;;;;;;;;;;17.20;99.90;;;;;;5096759;28;19912;-73
2021/09/12 08:14:46;;;;;;;;;;;17.20;99.90;;;;;;5095303;28;19975;-73
2021/09/12 08:17:11;;;;;;;;;;;17.20;99.90;;;;;;5082511;28;20389;-73
2021/09/12 08:19:37;;;;;;;;;;;17.20;99.90;;;;;;5077397;28;19930;-73
2021/09/12 08:22:03;;;;;;;;;;;17.20;99.90;;;;;;5077691;28;20006;-72
2021/09/12 08:24:28;;;;;;;;;;;17.30;99.90;;;;;;5096360;28;19915;-73
2021/09/12 08:26:54;;;;;;;;;;;17.30;99.90;;;;;;5078065;28;19952;-73
2021/09/12 08:29:20;;;;;;;;;;;17.40;99.90;;;;;;5078041;28;20315;-73
2021/09/12 08:31:45;;;;;;;;;;;17.40;99.90;;;;;;5096261;28;19916;-73
2021/09/12 08:34:11;;;;;;;;;;;17.50;99.90;;;;;;5096491;28;20002;-73
2021/09/12 08:36:37;;;;;;;;;;;17.50;99.90;;;;;;5095349;28;21648;-73
2021/09/12 08:39:03;;;;;;;;;;;17.60;99.90;;;;;;5095991;28;19920;-73
2021/09/12 08:41:29;;;;;;;;;;;17.60;99.90;;;;;;5095384;28;20010;-73
2021/09/12 08:43:55;;;;;;;;;;;17.60;99.90;;;;;;5096101;28;19919;-73
2021/09/12 08:46:20;;;;;;;;;;;17.60;99.90;;;;;;5077773;28;20219;-73
2021/09/12 08:48:46;;;;;;;;;;;17.60;99.90;;;;;;5077215;28;19919;-73
2021/09/12 08:51:11;;;;;;;;;;;17.60;99.90;;;;;;5093740;28;19912;-73
2021/09/12 08:53:37;;;;;;;;;;;17.60;99.90;;;;;;5095468;28;19970;-73
2021/09/12 08:56:03;;;;;;;;;;;17.60;99.90;;;;;;5095059;28;19916;-73
2021/09/12 08:58:28;;;;;;;;;;;17.70;99.90;;;;;;5093925;28;20006;-73
2021/09/12 09:00:59;;;;;;;;;;;17.70;99.90;;;;;;5077785;28;20303;-73
2021/09/12 09:03:32;;;;;;;;;;;17.80;99.90;;;;;;5094461;28;19965;-72
2021/09/12 09:05:58;;;;;;;;;;;17.90;99.90;;;;;;5095486;28;20345;-73
2021/09/12 09:08:23;;;;;;;;;;;17.90;99.90;;;;;;5093493;28;19921;-73
2021/09/12 09:10:50;;;;;;;;;;;18.00;99.90;;;;;;5081319;28;19916;-72
2021/09/12 09:13:36;;;;;;;;;;;18.10;99.90;;;;;;5082732;28;19989;-73
2021/09/12 09:16:03;;;;;;;;;;;18.10;99.90;;;;;;5082324;28;20724;-73
2021/09/12 09:18:30;;;;;;;;;;;18.20;99.90;;;;;;5082688;28;20026;-73
2021/09/12 09:20:55;;;;;;;;;;;18.30;99.90;;;;;;5083860;28;20010;-73
2021/09/12 09:23:21;;;;;;;;;;;18.30;99.90;;;;;;5067653;28;20417;-73
2021/09/12 09:25:47;;;;;;;;;;;18.40;99.90;;;;;;5085895;28;19927;-73
2021/09/12 09:28:13;;;;;;;;;;;18.40;99.90;;;;;;5082720;28;19916;-73
2021/09/12 09:31:10;;;;;;;;;;;18.50;99.90;;;;;;5065456;28;19916;-73
2021/09/12 09:33:33;;;;;;;;;;;18.50;99.90;;;;;;5084525;28;19992;-73
2021/09/12 09:36:08;;;;;;;;;;;18.60;99.90;;;;;;5084876;27;19920;-75
2021/09/12 09:38:36;;;;;;;;;;;18.60;99.90;;;;;;5073728;28;19913;-75
2021/09/12 09:41:05;;;;;;;;;;;18.70;99.90;;;;;;5071212;28;20011;-75
2021/09/12 09:43:37;;;;;;;;;;;18.80;99.90;;;;;;5069659;28;20285;-74
2021/09/12 09:46:03;;;;;;;;;;;19.00;99.90;;;;;;5073704;28;19974;-74
2021/09/12 09:48:33;;;;;;;;;;;19.10;99.90;;;;;;5069245;28;19924;-75
2021/09/12 09:51:00;;;;;;;;;;;19.20;99.90;;;;;;5067942;28;20209;-74
2021/09/12 09:53:25;;;;;;;;;;;19.20;99.90;;;;;;5070142;28;20497;-75
2021/09/12 09:55:53;;;;;;;;;;;19.40;99.90;;;;;;5071534;28;19921;-75
2021/09/12 09:58:18;;;;;;;;;;;19.50;99.90;;;;;;5063432;28;19975;-74
2021/09/12 10:00:44;;;;;;;;;;;19.60;99.90;;;;;;5070777;28;19948;-74
2021/09/12 10:03:10;;;;;;;;;;;19.80;99.90;;;;;;5063385;28;19973;-75
2021/09/12 10:05:36;;;;;;;;;;;19.90;99.90;;;;;;5066924;28;19962;-75
2021/09/12 10:08:06;;;;;;;;;;;20.00;99.90;;;;;;5071715;28;19953;-74
2021/09/12 10:10:31;;;;;;;;;;;20.10;99.90;;;;;;5069800;28;19999;-74
2021/09/12 10:12:59;;;;;;;;;;;20.20;99.90;;;;;;5070879;28;20202;-74
2021/09/12 10:15:47;;;;;;;;;;;20.20;99.90;;;;;;5068102;28;19923;-74
2021/09/12 10:18:13;;;;;;;;;;;20.30;99.90;;;;;;5070263;28;19999;-75
2021/09/12 10:20:39;;;;;;;;;;;20.40;99.90;;;;;;5067760;28;19999;-74
2021/09/12 10:23:07;;;;;;;;;;;20.50;99.90;;;;;;5061439;28;20339;-75
2021/09/12 10:25:41;;;;;;;;;;;20.60;99.90;;;;;;5071369;28;19928;-74
2021/09/12 10:28:07;;;;;;;;;;;20.70;99.90;;;;;;5069709;28;19958;-75
2021/09/12 10:30:36;;;;;;;;;;;20.70;99.90;;;;;;5064900;28;19913;-74
2021/09/12 10:33:05;;;;;;;;;;;20.70;99.90;;;;;;5070625;28;19920;-74
2021/09/12 10:35:35;;;;;;;;;;;20.70;99.90;;;;;;5080079;28;19974;-74
2021/09/12 10:38:08;;;;;;;;;;;20.70;99.90;;;;;;5086320;28;19927;-75
2021/09/12 10:40:46;;;;;;;;;;;20.60;99.90;;;;;;5087007;28;19916;-75
2021/09/12 10:43:24;;;;;;;;;;;20.50;99.90;;;;;;5069401;28;19916;-75
2021/09/12 10:45:59;;;;;;;;;;;20.40;99.90;;;;;;5078792;28;19913;-75
2021/09/12 10:48:24;;;;;;;;;;;20.30;99.90;;;;;;5080415;28;19970;-75
2021/09/12 10:50:50;;;;;;;;;;;20.30;99.90;;;;;;5069097;28;19913;-75
2021/09/12 10:53:16;;;;;;;;;;;20.30;99.90;;;;;;5068443;28;19912;-75
2021/09/12 10:56:11;;;;;;;;;;;20.30;99.90;;;;;;5077424;28;19920;-75
2021/09/12 10:58:37;;;;;;;;;;;20.30;99.90;;;;;;5063681;28;20386;-75
2021/09/12 11:01:04;;;;;;;;;;;20.40;99.90;;;;;;5081352;28;19912;-75
2021/09/12 11:03:30;;;;;;;;;;;20.60;99.90;;;;;;5072350;28;19912;-75
2021/09/12 11:05:56;;;;;;;;;;;20.80;99.90;;;;;;5079273;28;19919;-74
2021/09/12 11:08:35;;;;;;;;;;;21.00;99.90;;;;;;5049122;28;19921;-74
2021/09/12 11:11:01;;;;;;;;;;;21.00;99.90;;;;;;5071780;28;19912;-74
2021/09/12 11:13:27;;;;;;;;;;;20.90;99.90;;;;;;5078840;28;19967;-74
2021/09/12 11:16:03;;;;;;;;;;;20.70;99.90;;;;;;5060654;28;19960;-74
2021/09/12 11:18:48;;;;;;;;;;;20.50;99.90;;;;;;5075342;28;20234;-74
2021/09/12 11:21:24;;;;;;;;;;;20.40;99.90;;;;;;5065685;28;20288;-74
2021/09/12 11:23:55;;;;;;;;;;;20.20;99.90;;;;;;5076421;28;20278;-73
2021/09/12 11:26:20;;;;;;;;;;;20.00;99.90;;;;;;5074680;28;19934;-74
2021/09/12 11:28:58;;;;;;;;;;;20.00;99.90;;;;;;5073420;28;19913;-75
2021/09/12 11:31:30;;;;;;;;;;;20.00;99.90;;;;;;5071653;28;19940;-74
2021/09/12 11:33:56;;;;;;;;;;;20.10;99.90;;;;;;5054140;28;20393;-75
2021/09/12 11:36:23;;;;;;;;;;;20.20;99.90;;;;;;5048380;28;19913;-74
2021/09/12 11:38:58;;;;;;;;;;;20.20;99.90;;;;;;5075760;28;19966;-73
2021/09/12 11:41:28;;;;;;;;;;;20.30;99.90;;;;;;5056880;28;19916;-74
2021/09/12 11:43:57;;;;;;;;;;;20.50;99.90;;;;;;5049165;28;20390;-74
2021/09/12 11:46:23;;;;;;;;;;;20.60;99.90;;;;;;5049292;28;19924;-74
2021/09/12 11:49:07;;;;;;;;;;;20.70;99.90;;;;;;5056024;28;19924;-74
2021/09/12 11:51:34;;;;;;;;;;;20.90;99.90;;;;;;5048460;28;19920;-74
2021/09/12 11:54:14;;;;;;;;;;;21.20;99.90;;;;;;5074523;28;19934;-75
2021/09/12 11:56:41;;;;;;;;;;;21.20;99.90;;;;;;5058691;28;20205;-74
2021/09/12 11:59:11;;;;;;;;;;;21.30;99.90;;;;;;5075355;28;20322;-74
2021/09/12 12:01:38;;;;;;;;;;;21.40;99.90;;;;;;5069262;28;19920;-75
2021/09/12 12:04:04;;;;;;;;;;;21.30;99.90;;;;;;5057009;28;19916;-74
2021/09/12 12:06:30;;;;;;;;;;;20.90;99.90;;;;;;5076396;28;19912;-74
2021/09/12 12:09:05;;;;;;;;;;;20.80;99.90;;;;;;5054625;28;19994;-74
2021/09/12 12:11:31;;;;;;;;;;;20.70;99.90;;;;;;5056862;28;20045;-73
2021/09/12 12:13:56;;;;;;;;;;;20.70;99.90;;;;;;5071110;28;19920;-74
2021/09/12 12:16:22;;;;;;;;;;;20.70;99.90;;;;;;5063002;28;20330;-74
2021/09/12 12:18:59;;;;;;;;;;;20.60;99.90;;;;;;5077632;28;19916;-75
2021/09/12 12:21:28;;;;;;;;;;;20.50;99.90;;;;;;5076426;28;20323;-74
2021/09/12 12:23:54;;;;;;;;;;;20.40;99.90;;;;;;5059199;28;20349;-75
2021/09/12 12:26:20;;;;;;;;;;;20.40;99.90;;;;;;5074030;28;19999;-74
2021/09/12 12:28:55;;;;;;;;;;;20.60;99.90;;;;;;5055394;28;20250;-74
2021/09/12 12:31:21;;;;;;;;;;;20.70;99.90;;;;;;5071078;28;19920;-74
2021/09/12 12:33:47;;;;;;;;;;;20.90;99.90;;;;;;5071070;28;19917;-75
2021/09/12 12:36:17;;;;;;;;;;;21.00;99.90;;;;;;5072300;28;19922;-74
2021/09/12 12:38:43;;;;;;;;;;;21.00;99.90;;;;;;5054783;28;19955;-73
2021/09/12 12:41:10;;;;;;;;;;;21.00;99.90;;;;;;5070044;28;19917;-73
2021/09/12 12:43:36;;;;;;;;;;;21.10;99.90;;;;;;5080703;28;19965;-73
2021/09/12 12:46:03;;;;;;;;;;;21.40;99.90;;;;;;5063312;28;19918;-75
2021/09/12 12:48:28;;;;;;;;;;;21.50;99.90;;;;;;5066856;28;19916;-74
2021/09/12 12:50:54;;;;;;;;;;;21.40;99.90;;;;;;5063109;28;20379;-75
2021/09/12 12:53:41;;;;;;;;;;;21.20;99.90;;;;;;5085585;28;19922;-75
2021/09/12 12:56:07;;;;;;;;;;;21.10;99.90;;;;;;5063960;28;19932;-75
2021/09/12 12:58:33;;;;;;;;;;;21.00;99.90;;;;;;5081111;28;20007;-75
2021/09/12 13:01:00;;;;;;;;;;;20.80;99.90;;;;;;5083067;28;20003;-76
2021/09/12 13:03:26;;;;;;;;;;;20.70;99.90;;;;;;5083406;28;19958;-75
2021/09/12 13:05:52;;;;;;;;;;;20.50;99.90;;;;;;5066361;28;19956;-75
2021/09/12 13:08:20;;;;;;;;;;;20.60;99.90;;;;;;5050220;28;19917;-75
2021/09/12 13:10:46;;;;;;;;;;;20.60;99.90;;;;;;5054458;28;19916;-75
2021/09/12 13:13:12;;;;;;;;;;;20.40;99.90;;;;;;5068805;28;19912;-75
2021/09/12 13:15:39;;;;;;;;;;;20.30;99.90;;;;;;5072827;28;19920;-75
2021/09/12 13:18:05;;;;;;;;;;;20.30;99.90;;;;;;5064639;28;19913;-75
2021/09/12 13:20:31;;;;;;;;;;;20.40;99.90;;;;;;5070337;28;19923;-75
2021/09/12 13:22:57;;;;;;;;;;;20.40;99.90;;;;;;5055868;28;19913;-75
2021/09/12 13:25:22;;;;;;;;;;;20.50;99.90;;;;;;5076375;28;20311;-74
2021/09/12 13:27:49;;;;;;;;;;;20.40;99.90;;;;;;5062451;28;19920;-75
2021/09/12 13:30:15;;;;;;;;;;;20.50;99.90;;;;;;5069079;28;20303;-75
2021/09/12 13:32:41;;;;;;;;;;;20.70;99.90;;;;;;5068007;28;20015;-75
2021/09/12 13:35:07;;;;;;;;;;;20.80;99.90;;;;;;5072917;28;20311;-75
2021/09/12 13:37:32;;;;;;;;;;;20.90;99.90;;;;;;5071155;28;19912;-74
2021/09/12 13:39:58;;;;;;;;;;;21.00;99.90;;;;;;5044972;28;19921;-75
2021/09/12 13:42:24;;;;;;;;;;;21.30;99.90;;;;;;5070449;28;19916;-75
2021/09/12 13:44:49;;;;;;;;;;;21.20;99.90;;;;;;5072827;28;20003;-75
2021/09/12 13:47:15;;;;;;;;;;;21.20;99.90;;;;;;5072849;28;19919;-75
2021/09/12 13:49:41;;;;;;;;;;;21.10;99.90;;;;;;5077822;28;19998;-76
2021/09/12 13:52:07;;;;;;;;;;;20.80;99.90;;;;;;5083524;28;19930;-77
2021/09/12 13:54:32;;;;;;;;;;;20.70;99.90;;;;;;5062622;28;19994;-76
2021/09/12 13:57:00;;;;;;;;;;;20.50;99.90;;;;;;5075784;28;20039;-76
2021/09/12 13:59:26;;;;;;;;;;;20.60;99.90;;;;;;5080642;28;19912;-75
2021/09/12 14:01:51;;;;;;;;;;;20.50;99.90;;;;;;5078249;28;19923;-75
2021/09/12 14:04:17;;;;;;;;;;;20.60;99.90;;;;;;5070339;28;20220;-76
2021/09/12 14:06:42;;;;;;;;;;;20.60;99.90;;;;;;5064935;28;19919;-75
2021/09/12 14:09:08;;;;;;;;;;;20.60;99.90;;;;;;5074588;28;20303;-76
2021/09/12 14:11:34;;;;;;;;;;;20.50;99.90;;;;;;5067403;28;19982;-76
2021/09/12 14:13:59;;;;;;;;;;;20.30;99.90;;;;;;5079951;28;19927;-75